createdAt,value
2018-06-09T00:01:13.773Z,21.20
2018-06-09T00:03:46.537Z,21.10
2018-06-09T00:06:19.378Z,21.10
2018-06-09T00:08:52.669Z,21.00
2018-06-09T00:11:25.041Z,21.00
2018-06-09T00:13:57.448Z,21.00
2018-06-09T00:16:36.496Z,21.00
2018-06-09T00:19:09.352Z,21.00
2018-06-09T00:21:41.803Z,21.00
2018-06-09T00:24:14.182Z,20.90
2018-06-09T00:26:46.880Z,20.90
2018-06-09T00:29:20.637Z,20.90
2018-06-09T00:31:53.527Z,20.80
2018-06-09T00:34:26.868Z,20.70
2018-06-09T00:37:01.366Z,20.70
2018-06-09T00:39:35.003Z,20.70
2018-06-09T00:42:07.477Z,20.60
2018-06-09T00:44:39.917Z,20.60
2018-06-09T00:47:12.550Z,20.60
2018-06-09T00:49:45.341Z,20.60
2018-06-09T00:52:17.728Z,20.60
2018-06-09T00:54:50.137Z,20.60
2018-06-09T00:57:26.936Z,20.60
2018-06-09T00:59:59.621Z,20.60
2018-06-09T01:02:32.094Z,20.60
2018-06-09T01:05:04.829Z,20.60
2018-06-09T01:07:38.061Z,20.50
2018-06-09T01:10:11.281Z,20.50
2018-06-09T01:12:44.003Z,20.50
2018-06-09T01:15:16.559Z,20.50
2018-06-09T01:17:49.001Z,20.50
2018-06-09T01:22:54.517Z,20.50
2018-06-09T01:25:26.925Z,20.40
2018-06-09T01:30:32.119Z,20.40
2018-06-09T01:33:05.146Z,20.40
2018-06-09T01:35:37.534Z,20.40
2018-06-09T01:38:09.925Z,20.30
2018-06-09T01:40:42.566Z,20.30
2018-06-09T01:43:14.983Z,20.30
2018-06-09T01:45:47.370Z,20.30
2018-06-09T01:48:19.781Z,20.20
2018-06-09T01:50:52.751Z,20.20
2018-06-09T01:53:25.123Z,20.20
2018-06-09T01:55:57.567Z,20.20
2018-06-09T01:58:29.941Z,20.20
2018-06-09T02:01:02.416Z,20.10
2018-06-09T02:03:34.789Z,20.10
2018-06-09T02:06:07.181Z,20.10
2018-06-09T02:08:39.560Z,20.10
2018-06-09T02:11:12.286Z,20.00
2018-06-09T02:13:44.637Z,20.00
2018-06-09T02:16:17.049Z,20.00
2018-06-09T02:18:49.380Z,19.90
2018-06-09T02:23:54.249Z,19.80
2018-06-09T02:26:26.641Z,19.80
2018-06-09T02:28:59.052Z,19.70
2018-06-09T02:31:31.501Z,19.80
2018-06-09T02:34:03.871Z,19.70
2018-06-09T02:36:36.277Z,19.70
2018-06-09T02:39:08.681Z,19.70
2018-06-09T02:41:41.681Z,19.70
2018-06-09T02:44:14.150Z,19.70
2018-06-09T02:46:46.539Z,19.60
2018-06-09T02:49:18.924Z,19.60
2018-06-09T02:51:51.774Z,19.60
2018-06-09T02:54:24.160Z,19.60
2018-06-09T02:56:56.572Z,19.60
2018-06-09T02:59:28.965Z,19.50
2018-06-09T03:04:33.740Z,19.50
2018-06-09T03:07:06.143Z,19.50
2018-06-09T03:09:38.531Z,19.40
2018-06-09T03:12:12.552Z,19.40
2018-06-09T03:17:17.627Z,19.30
2018-06-09T03:19:50.315Z,19.30
2018-06-09T03:22:22.713Z,19.30
2018-06-09T03:24:55.174Z,19.30
2018-06-09T03:27:27.555Z,19.30
2018-06-09T03:29:59.971Z,19.30
2018-06-09T03:32:34.204Z,19.30
2018-06-09T03:35:06.687Z,19.40
2018-06-09T03:37:39.320Z,19.30
2018-06-09T03:40:11.714Z,19.30
2018-06-09T03:42:44.423Z,19.30
2018-06-09T03:45:16.974Z,19.30
2018-06-09T03:47:49.368Z,19.20
2018-06-09T03:50:21.838Z,19.30
2018-06-09T03:52:54.190Z,19.30
2018-06-09T03:55:26.890Z,19.30
2018-06-09T03:57:59.310Z,19.30
2018-06-09T04:00:31.723Z,19.40
2018-06-09T04:03:04.143Z,19.30
2018-06-09T04:05:36.542Z,19.40
2018-06-09T04:08:08.990Z,19.40
2018-06-09T04:10:41.400Z,19.40
2018-06-09T04:13:14.585Z,19.40
2018-06-09T04:18:19.636Z,19.50
2018-06-09T04:20:52.025Z,19.50
2018-06-09T04:23:24.452Z,19.50
2018-06-09T04:28:29.478Z,19.60
2018-06-09T04:31:01.842Z,19.60
2018-06-09T04:33:34.307Z,19.60
2018-06-09T04:36:06.672Z,19.70
2018-06-09T04:38:39.106Z,19.70
2018-06-09T04:41:11.533Z,19.90
2018-06-09T04:43:43.927Z,20.00
2018-06-09T04:46:16.304Z,20.00
2018-06-09T04:48:48.731Z,20.10
2018-06-09T04:51:21.148Z,20.20
2018-06-09T04:56:27.417Z,20.30
2018-06-09T04:58:59.779Z,20.50
2018-06-09T05:04:04.590Z,20.80
2018-06-09T05:06:37.086Z,20.80
2018-06-09T05:09:09.512Z,20.90
2018-06-09T05:11:41.875Z,20.90
2018-06-09T05:14:14.362Z,20.90
2018-06-09T05:16:46.772Z,21.00
2018-06-09T05:19:19.236Z,21.00
2018-06-09T05:21:51.618Z,21.10
2018-06-09T05:24:24.098Z,21.00
2018-06-09T05:26:56.483Z,21.10
2018-06-09T05:29:28.897Z,21.10
2018-06-09T05:34:35.125Z,21.40
2018-06-09T05:37:07.707Z,21.40
2018-06-09T05:39:40.343Z,21.50
2018-06-09T05:42:12.743Z,21.50
2018-06-09T05:44:45.901Z,21.60
2018-06-09T05:47:18.269Z,21.70
2018-06-09T05:49:50.691Z,21.70
2018-06-09T05:52:23.167Z,21.80
2018-06-09T05:54:55.701Z,21.90
2018-06-09T05:57:28.088Z,22.00
2018-06-09T06:00:00.848Z,22.10
2018-06-09T06:02:33.449Z,22.20
2018-06-09T06:05:05.919Z,22.20
2018-06-09T06:07:38.362Z,22.30
2018-06-09T06:10:10.842Z,22.30
2018-06-09T06:12:43.245Z,22.40
2018-06-09T06:15:15.761Z,22.50
2018-06-09T06:17:48.565Z,22.60
2018-06-09T06:20:20.969Z,22.70
2018-06-09T06:22:53.362Z,22.80
2018-06-09T06:25:25.799Z,22.80
2018-06-09T06:27:58.269Z,23.00
2018-06-09T06:30:30.624Z,23.00
2018-06-09T06:33:03.073Z,23.10
2018-06-09T06:35:35.565Z,23.20
2018-06-09T06:38:08.367Z,23.30
2018-06-09T06:40:40.765Z,23.40
2018-06-09T06:43:13.202Z,23.50
2018-06-09T06:45:45.644Z,23.60
2018-06-09T06:48:18.042Z,23.60
2018-06-09T06:50:51.008Z,23.70
2018-06-09T06:53:23.469Z,23.80
2018-06-09T06:55:56.762Z,23.90
2018-06-09T06:58:29.175Z,24.00
2018-06-09T07:01:01.563Z,24.10
2018-06-09T07:03:34.029Z,24.10
2018-06-09T07:06:06.404Z,24.20
2018-06-09T07:08:38.856Z,24.30
2018-06-09T07:11:11.296Z,24.30
2018-06-09T07:13:43.901Z,24.40
2018-06-09T07:16:16.424Z,24.50
2018-06-09T07:18:49.163Z,24.50
2018-06-09T07:21:21.624Z,24.60
2018-06-09T07:23:54.215Z,24.60
2018-06-09T07:26:26.629Z,24.70
2018-06-09T07:28:59.069Z,24.90
2018-06-09T07:31:31.611Z,25.00
2018-06-09T07:34:04.198Z,25.00
2018-06-09T07:36:36.638Z,25.10
2018-06-09T07:39:09.099Z,25.10
2018-06-09T07:41:41.596Z,25.20
2018-06-09T07:44:14.078Z,25.30
2018-06-09T07:46:46.536Z,25.30
2018-06-09T07:49:18.938Z,25.40
2018-06-09T07:51:51.361Z,25.50
2018-06-09T07:54:23.863Z,25.50
2018-06-09T07:56:56.357Z,25.60
2018-06-09T07:59:28.734Z,25.60
2018-06-09T08:02:01.324Z,25.70
2018-06-09T08:04:33.747Z,25.70
2018-06-09T08:07:06.151Z,25.80
2018-06-09T08:09:39.700Z,25.90
2018-06-09T08:12:12.147Z,26.00
2018-06-09T08:14:44.583Z,26.00
2018-06-09T08:17:17.069Z,26.10
2018-06-09T08:19:49.502Z,26.20
2018-06-09T08:22:21.944Z,26.30
2018-06-09T08:24:54.365Z,26.40
2018-06-09T08:27:27.090Z,26.30
2018-06-09T08:29:59.590Z,26.50
2018-06-09T08:32:32.059Z,26.50
2018-06-09T08:35:04.498Z,27.40
2018-06-09T08:37:40.056Z,26.70
2018-06-09T08:40:12.475Z,26.80
2018-06-09T08:42:44.905Z,26.80
2018-06-09T08:45:17.333Z,26.90
2018-06-09T08:47:49.890Z,26.90
2018-06-09T08:50:22.341Z,27.10
2018-06-09T08:52:55.187Z,27.10
2018-06-09T08:55:27.592Z,27.10
2018-06-09T08:58:00.142Z,27.20
2018-06-09T09:00:32.594Z,27.20
2018-06-09T09:03:05.134Z,27.20
2018-06-09T09:05:37.595Z,27.30
2018-06-09T09:08:17.403Z,27.40
2018-06-09T09:10:49.795Z,27.30
2018-06-09T09:13:22.242Z,27.40
2018-06-09T09:15:54.593Z,27.60
2018-06-09T09:18:27.109Z,27.70
2018-06-09T09:20:59.541Z,27.80
2018-06-09T09:23:31.927Z,27.80
2018-06-09T09:26:04.562Z,27.90
2018-06-09T09:28:37.295Z,27.90
2018-06-09T09:31:10.086Z,27.90
2018-06-09T09:33:42.447Z,28.00
2018-06-09T09:36:14.909Z,28.10
2018-06-09T09:38:50.842Z,28.20
2018-06-09T09:41:23.919Z,28.10
2018-06-09T09:43:56.295Z,28.30
2018-06-09T09:46:28.700Z,28.40
2018-06-09T09:49:01.127Z,28.40
2018-06-09T09:51:33.602Z,28.40
2018-06-09T09:54:06.411Z,28.50
2018-06-09T09:56:38.848Z,28.50
2018-06-09T09:59:11.369Z,28.50
2018-06-09T10:01:44.077Z,28.60
2018-06-09T10:04:16.990Z,28.80
2018-06-09T10:06:49.618Z,28.90
2018-06-09T10:11:55.238Z,28.90
2018-06-09T10:14:27.743Z,28.70
2018-06-09T10:17:00.960Z,28.70
2018-06-09T10:22:06.023Z,28.70
2018-06-09T10:24:38.423Z,28.80
2018-06-09T10:27:11.076Z,28.90
2018-06-09T10:29:43.543Z,29.00
2018-06-09T10:32:16.005Z,29.20
2018-06-09T10:34:48.424Z,29.20
2018-06-09T10:37:20.796Z,29.30
2018-06-09T10:39:53.271Z,29.30
2018-06-09T10:42:25.704Z,29.30
2018-06-09T10:44:58.974Z,29.40
2018-06-09T10:47:31.450Z,29.40
2018-06-09T10:50:03.981Z,29.30
2018-06-09T10:52:36.421Z,29.20
2018-06-09T10:55:08.843Z,29.20
2018-06-09T10:57:41.215Z,29.30
2018-06-09T11:00:14.907Z,29.20
2018-06-09T11:02:47.303Z,29.30
2018-06-09T11:05:19.743Z,29.40
2018-06-09T11:07:52.106Z,29.50
2018-06-09T11:10:24.662Z,29.70
2018-06-09T11:12:57.029Z,29.90
2018-06-09T11:15:29.586Z,30.00
2018-06-09T11:18:02.122Z,29.70
2018-06-09T11:20:34.827Z,29.60
2018-06-09T11:23:07.172Z,29.80
2018-06-09T11:25:39.769Z,29.90
2018-06-09T11:28:12.171Z,30.00
2018-06-09T11:30:44.682Z,30.00
2018-06-09T11:33:38.583Z,30.00
2018-06-09T11:36:12.220Z,30.00
2018-06-09T11:38:44.702Z,30.20
2018-06-09T11:41:17.855Z,30.20
2018-06-09T11:43:50.870Z,30.20
2018-06-09T11:48:55.906Z,29.80
2018-06-09T11:51:28.672Z,29.90
2018-06-09T11:54:01.150Z,30.30
2018-06-09T11:56:33.816Z,30.30
2018-06-09T11:59:06.431Z,30.60
2018-06-09T12:01:38.950Z,30.70
2018-06-09T12:04:11.613Z,30.70
2018-06-09T12:06:44.046Z,30.50
2018-06-09T12:09:16.586Z,30.50
2018-06-09T12:11:49.022Z,30.40
2018-06-09T12:14:21.487Z,30.30
2018-06-09T12:16:53.959Z,30.50
2018-06-09T12:19:26.436Z,30.40
2018-06-09T12:21:59.187Z,30.50
2018-06-09T12:24:31.633Z,30.50
2018-06-09T12:27:04.606Z,30.70
2018-06-09T12:29:37.022Z,30.80
2018-06-09T12:32:09.643Z,30.70
2018-06-09T12:34:42.255Z,30.70
2018-06-09T12:37:14.880Z,30.60
2018-06-09T12:39:47.273Z,30.60
2018-06-09T12:42:20.882Z,30.60
2018-06-09T12:44:53.746Z,30.70
2018-06-09T12:47:26.193Z,30.90
2018-06-09T12:49:59.062Z,30.90
2018-06-09T12:52:32.162Z,30.70
2018-06-09T12:55:04.613Z,30.50
2018-06-09T12:57:37.046Z,30.50
2018-06-09T13:00:09.492Z,30.60
2018-06-09T13:02:42.588Z,30.70
2018-06-09T13:05:15.024Z,30.60
2018-06-09T13:07:47.533Z,30.70
2018-06-09T13:10:20.360Z,30.80
2018-06-09T13:12:53.061Z,30.70
2018-06-09T13:15:25.522Z,30.60
2018-06-09T13:17:58.080Z,30.60
2018-06-09T13:20:30.505Z,30.90
2018-06-09T13:23:03.010Z,31.00
2018-06-09T13:25:35.806Z,31.00
2018-06-09T13:28:08.223Z,30.90
2018-06-09T13:30:40.743Z,30.80
2018-06-09T13:33:13.176Z,30.70
2018-06-09T13:35:45.625Z,30.60
2018-06-09T13:38:18.212Z,30.60
2018-06-09T13:40:50.744Z,30.80
2018-06-09T13:43:23.199Z,30.80
2018-06-09T13:45:55.686Z,30.80
2018-06-09T13:48:28.089Z,30.80
2018-06-09T13:51:00.631Z,30.80
2018-06-09T13:53:33.664Z,30.70
2018-06-09T13:56:06.340Z,30.90
2018-06-09T13:58:39.930Z,31.10
2018-06-09T14:01:12.485Z,31.20
2018-06-09T14:03:44.976Z,31.20
2018-06-09T14:06:17.794Z,31.00
2018-06-09T14:08:50.573Z,30.80
2018-06-09T14:11:23.507Z,30.80
2018-06-09T14:13:56.002Z,30.80
2018-06-09T14:16:28.443Z,30.80
2018-06-09T14:19:00.894Z,30.90
2018-06-09T14:21:33.322Z,31.10
2018-06-09T14:24:05.863Z,31.20
2018-06-09T14:26:38.365Z,31.50
2018-06-09T14:29:10.782Z,31.60
2018-06-09T14:31:43.192Z,31.70
2018-06-09T14:34:15.664Z,31.60
2018-06-09T14:36:48.057Z,31.30
2018-06-09T14:39:20.578Z,31.10
2018-06-09T14:41:54.541Z,31.00
2018-06-09T14:44:27.166Z,31.20
2018-06-09T14:47:02.043Z,31.10
2018-06-09T14:49:34.863Z,31.10
2018-06-09T14:52:07.798Z,31.00
2018-06-09T14:54:40.231Z,31.00
2018-06-09T14:57:13.628Z,30.90
2018-06-09T14:59:46.077Z,30.80
2018-06-09T15:02:19.532Z,30.70
2018-06-09T15:04:52.344Z,30.80
2018-06-09T15:07:24.934Z,30.70
2018-06-09T15:09:57.329Z,30.70
2018-06-09T15:12:29.831Z,30.70
2018-06-09T15:15:02.252Z,30.80
2018-06-09T15:17:34.693Z,31.00
2018-06-09T15:20:07.851Z,31.10
2018-06-09T15:22:40.411Z,30.90
2018-06-09T15:25:14.039Z,31.00
2018-06-09T15:27:47.610Z,31.00
2018-06-09T15:30:20.066Z,31.10
2018-06-09T15:32:53.078Z,31.00
2018-06-09T15:35:25.513Z,30.70
2018-06-09T15:37:57.946Z,30.80
2018-06-09T15:40:30.401Z,30.80
2018-06-09T15:43:02.886Z,30.70
2018-06-09T15:45:35.468Z,30.70
2018-06-09T15:48:07.889Z,30.80
2018-06-09T15:50:40.312Z,30.90
2018-06-09T15:53:12.733Z,31.00
2018-06-09T15:55:45.156Z,31.00
2018-06-09T15:58:17.620Z,30.80
2018-06-09T16:00:50.780Z,30.60
2018-06-09T16:03:23.698Z,30.70
2018-06-09T16:05:56.431Z,30.90
2018-06-09T16:08:28.901Z,30.80
2018-06-09T16:11:01.350Z,30.70
2018-06-09T16:13:33.796Z,30.80
2018-06-09T16:16:06.225Z,30.90
2018-06-09T16:18:38.720Z,30.80
2018-06-09T16:21:12.175Z,30.60
2018-06-09T16:23:44.611Z,30.80
2018-06-09T16:26:17.893Z,30.70
2018-06-09T16:28:50.343Z,30.80
2018-06-09T16:31:22.822Z,30.70
2018-06-09T16:33:55.303Z,30.70
2018-06-09T16:36:27.894Z,30.50
2018-06-09T16:39:00.319Z,30.30
2018-06-09T16:41:32.769Z,30.30
2018-06-09T16:44:05.187Z,30.40
2018-06-09T16:46:37.688Z,30.40
2018-06-09T16:49:10.227Z,30.40
2018-06-09T16:51:43.422Z,30.40
2018-06-09T16:54:15.804Z,30.40
2018-06-09T16:56:48.262Z,30.50
2018-06-09T17:01:53.191Z,30.50
2018-06-09T17:04:25.877Z,30.50
2018-06-09T17:06:59.458Z,30.40
2018-06-09T17:09:31.843Z,30.30
2018-06-09T17:12:04.555Z,30.20
2018-06-09T17:14:36.930Z,30.10
2018-06-09T17:17:09.494Z,30.10
2018-06-09T17:19:41.945Z,30.10
2018-06-09T17:22:14.445Z,30.10
2018-06-09T17:24:46.996Z,30.00
2018-06-09T17:27:19.531Z,29.80
2018-06-09T17:29:51.916Z,29.60
2018-06-09T17:32:24.369Z,29.60
2018-06-09T17:34:56.790Z,29.50
2018-06-09T17:37:29.248Z,29.50
2018-06-09T17:40:01.633Z,29.60
2018-06-09T17:42:34.180Z,29.50
2018-06-09T17:45:06.692Z,29.40
2018-06-09T17:47:39.142Z,29.40
2018-06-09T17:50:11.690Z,29.30
2018-06-09T17:52:44.543Z,29.10
2018-06-09T17:55:17.157Z,29.10
2018-06-09T17:57:49.826Z,29.00
2018-06-09T18:00:22.386Z,28.90
2018-06-09T18:02:58.910Z,28.90
2018-06-09T18:05:31.759Z,28.80
2018-06-09T18:08:04.394Z,28.70
2018-06-09T18:10:37.983Z,28.70
2018-06-09T18:13:10.539Z,28.60
2018-06-09T18:15:44.186Z,28.50
2018-06-09T18:18:16.679Z,28.50
2018-06-09T18:20:49.111Z,28.40
2018-06-09T18:23:22.098Z,28.40
2018-06-09T18:25:55.181Z,28.40
2018-06-09T18:28:28.814Z,28.40
2018-06-09T18:31:01.851Z,28.30
2018-06-09T18:33:34.303Z,28.20
2018-06-09T18:36:06.973Z,28.20
2018-06-09T18:38:41.534Z,28.20
2018-06-09T18:41:14.592Z,28.20
2018-06-09T18:43:47.391Z,28.10
2018-06-09T18:46:20.712Z,27.90
2018-06-09T18:48:55.971Z,27.80
2018-06-09T18:51:28.439Z,27.70
2018-06-09T18:54:01.039Z,27.60
2018-06-09T18:56:33.695Z,27.60
2018-06-09T18:59:06.150Z,27.40
2018-06-09T19:01:38.580Z,27.30
2018-06-09T19:04:10.996Z,27.30
2018-06-09T19:06:44.021Z,27.30
2018-06-09T19:09:18.061Z,27.20
2018-06-09T19:11:50.557Z,27.00
2018-06-09T19:14:23.545Z,27.00
2018-06-09T19:16:55.934Z,26.90
2018-06-09T19:19:28.613Z,26.90
2018-06-09T19:22:01.429Z,26.80
2018-06-09T19:24:34.163Z,26.80
2018-06-09T19:27:06.613Z,26.70
2018-06-09T19:29:39.143Z,26.70
2018-06-09T19:32:11.640Z,26.60
2018-06-09T19:34:44.464Z,26.60
2018-06-09T19:37:16.851Z,26.50
2018-06-09T19:39:49.230Z,26.50
2018-06-09T19:42:21.575Z,26.40
2018-06-09T19:44:54.347Z,26.30
2018-06-09T19:47:26.730Z,26.30
2018-06-09T19:49:59.494Z,26.30
2018-06-09T19:52:31.874Z,26.20
2018-06-09T19:55:04.376Z,26.20
2018-06-09T19:57:36.889Z,26.10
2018-06-09T20:00:09.346Z,26.10
2018-06-09T20:02:41.763Z,26.00
2018-06-09T20:05:14.187Z,26.00
2018-06-09T20:07:46.671Z,25.90
2018-06-09T20:10:19.145Z,25.80
2018-06-09T20:12:52.185Z,25.80
2018-06-09T20:15:24.730Z,25.80
2018-06-09T20:17:57.460Z,25.80
2018-06-09T20:20:29.906Z,25.70
2018-06-09T20:23:02.457Z,25.70
2018-06-09T20:25:34.946Z,25.70
2018-06-09T20:28:07.399Z,25.60
2018-06-09T20:30:39.963Z,25.60
2018-06-09T20:33:12.404Z,25.60
2018-06-09T20:35:44.821Z,25.60
2018-06-09T20:38:17.305Z,25.60
2018-06-09T20:40:49.903Z,25.60
2018-06-09T20:43:23.041Z,25.50
2018-06-09T20:45:55.713Z,25.50
2018-06-09T20:48:28.057Z,25.40
2018-06-09T20:51:00.543Z,25.40
2018-06-09T20:53:33.041Z,25.40
2018-06-09T20:56:05.470Z,25.30
2018-06-09T20:58:39.283Z,25.30
2018-06-09T21:01:12.022Z,25.30
2018-06-09T21:03:44.431Z,25.20
2018-06-09T21:06:16.905Z,25.10
2018-06-09T21:08:49.293Z,25.10
2018-06-09T21:11:22.107Z,25.00
2018-06-09T21:13:55.517Z,25.00
2018-06-09T21:16:27.923Z,25.00
2018-06-09T21:19:00.358Z,24.90
2018-06-09T21:21:32.775Z,24.90
2018-06-09T21:24:05.199Z,24.90
2018-06-09T21:26:43.439Z,24.90
2018-06-09T21:29:21.543Z,24.90
2018-06-09T21:31:54.311Z,24.90
2018-06-09T21:34:42.906Z,24.80
2018-06-09T21:37:17.308Z,24.80
2018-06-09T21:39:55.551Z,24.80
2018-06-09T21:42:32.978Z,24.80
2018-06-09T21:45:10.929Z,24.70
2018-06-09T21:47:43.521Z,24.70
2018-06-09T21:50:15.948Z,24.70
2018-06-09T21:52:49.671Z,24.70
2018-06-09T21:55:22.217Z,24.70
2018-06-09T21:57:54.646Z,24.70
2018-06-09T22:00:27.135Z,24.70
2018-06-09T22:02:59.616Z,24.70
2018-06-09T22:05:32.032Z,24.70
2018-06-09T22:08:04.524Z,24.80
2018-06-09T22:10:36.930Z,24.80
2018-06-09T22:13:09.378Z,24.70
2018-06-09T22:18:14.459Z,24.70
2018-06-09T22:20:47.024Z,24.60
2018-06-09T22:23:19.403Z,24.50
2018-06-09T22:25:57.514Z,24.50
2018-06-09T22:28:29.960Z,24.50
2018-06-09T22:31:02.679Z,24.50
2018-06-09T22:33:35.142Z,24.50
2018-06-09T22:36:07.578Z,24.40
2018-06-09T22:38:40.202Z,24.50
2018-06-09T22:41:12.612Z,24.50
2018-06-09T22:43:45.270Z,24.50
2018-06-09T22:46:17.634Z,24.50
2018-06-09T22:48:50.016Z,24.50
2018-06-09T22:51:22.524Z,24.50
2018-06-09T22:53:55.340Z,24.50
2018-06-09T22:56:27.775Z,24.50
2018-06-09T22:59:00.186Z,24.40
2018-06-09T23:01:32.544Z,24.40
2018-06-09T23:04:04.953Z,24.40
2018-06-09T23:06:37.358Z,24.30
2018-06-09T23:09:10.175Z,24.30
2018-06-09T23:11:42.555Z,24.30
2018-06-09T23:14:15.075Z,24.30
2018-06-09T23:16:47.527Z,24.20
2018-06-09T23:19:19.899Z,24.20
2018-06-09T23:21:52.291Z,24.20
2018-06-09T23:24:24.878Z,24.10
2018-06-09T23:26:57.304Z,24.10
2018-06-09T23:29:29.705Z,24.10
2018-06-09T23:32:02.293Z,24.00
2018-06-09T23:34:34.801Z,24.00
2018-06-09T23:37:07.202Z,23.90
2018-06-09T23:39:39.587Z,23.90
2018-06-09T23:42:12.015Z,24.00
2018-06-09T23:44:44.373Z,23.90
2018-06-09T23:47:16.804Z,23.90
2018-06-09T23:49:49.207Z,23.80
2018-06-09T23:52:21.595Z,23.80
2018-06-09T23:54:54.038Z,23.80
2018-06-09T23:57:26.503Z,23.70
2018-06-09T23:59:58.908Z,23.80
